sensor_id;sensor_type;location;lat;lon;timestamp;temperature;humidity
44705;DHT22;30431;48.520;9.046;2023-04-03T00:01:24;4.90;99.90
44705;DHT22;30431;48.520;9.046;2023-04-03T00:03:54;4.80;99.90
44705;DHT22;30431;48.520;9.046;2023-04-03T00:06:23;4.90;99.90
44705;DHT22;30431;48.520;9.046;2023-04-03T00:08:50;4.90;99.90
44705;DHT22;30431;48.520;9.046;2023-04-03T00:11:18;4.80;99.90
44705;DHT22;30431;48.520;9.046;2023-04-03T00:13:45;4.90;99.90
44705;DHT22;30431;48.520;9.046;2023-04-03T00:16:12;4.90;99.90
44705;DHT22;30431;48.520;9.046;2023-04-03T00:18:39;4.80;99.90
44705;DHT22;30431;48.520;9.046;2023-04-03T00:21:08;4.80;99.90
44705;DHT22;30431;48.520;9.046;2023-04-03T00:23:36;4.80;99.90
44705;DHT22;30431;48.520;9.046;2023-04-03T00:26:04;4.80;99.90
44705;DHT22;30431;48.520;9.046;2023-04-03T00:28:31;4.70;99.90
44705;DHT22;30431;48.520;9.046;2023-04-03T00:30:59;4.80;99.90
44705;DHT22;30431;48.520;9.046;2023-04-03T00:33:26;4.80;99.90
44705;DHT22;30431;48.520;9.046;2023-04-03T00:35:53;4.80;99.90
44705;DHT22;30431;48.520;9.046;2023-04-03T00:38:20;4.80;99.90
44705;DHT22;30431;48.520;9.046;2023-04-03T00:40:49;4.70;99.90
44705;DHT22;30431;48.520;9.046;2023-04-03T00:43:22;4.70;99.90
44705;DHT22;30431;48.520;9.046;2023-04-03T00:45:55;4.70;99.90
44705;DHT22;30431;48.520;9.046;2023-04-03T00:48:45;4.70;99.90
44705;DHT22;30431;48.520;9.046;2023-04-03T00:51:25;4.70;99.90
44705;DHT22;30431;48.520;9.046;2023-04-03T00:53:59;4.80;99.90
44705;DHT22;30431;48.520;9.046;2023-04-03T00:56:28;4.80;99.90
44705;DHT22;30431;48.520;9.046;2023-04-03T00:59:04;4.80;99.90
44705;DHT22;30431;48.520;9.046;2023-04-03T01:01:32;4.80;99.90
44705;DHT22;30431;48.520;9.046;2023-04-03T01:04:00;4.80;99.90
44705;DHT22;30431;48.520;9.046;2023-04-03T01:06:33;4.80;99.90
44705;DHT22;30431;48.520;9.046;2023-04-03T01:09:09;4.80;99.90
44705;DHT22;30431;48.520;9.046;2023-04-03T01:11:36;4.70;99.90
44705;DHT22;30431;48.520;9.046;2023-04-03T01:14:03;4.70;99.90
44705;DHT22;30431;48.520;9.046;2023-04-03T01:16:32;4.70;99.90
44705;DHT22;30431;48.520;9.046;2023-04-03T01:19:00;4.70;99.90
44705;DHT22;30431;48.520;9.046;2023-04-03T01:24:33;4.60;99.90
44705;DHT22;30431;48.520;9.046;2023-04-03T01:27:04;4.60;99.90
44705;DHT22;30431;48.520;9.046;2023-04-03T01:29:32;4.50;99.90
44705;DHT22;30431;48.520;9.046;2023-04-03T01:31:59;4.60;99.90
44705;DHT22;30431;48.520;9.046;2023-04-03T01:34:28;4.60;99.90
44705;DHT22;30431;48.520;9.046;2023-04-03T01:36:55;4.60;99.90
44705;DHT22;30431;48.520;9.046;2023-04-03T01:39:22;4.60;99.90
44705;DHT22;30431;48.520;9.046;2023-04-03T01:41:50;4.50;99.90
44705;DHT22;30431;48.520;9.046;2023-04-03T01:44:25;4.50;99.90
44705;DHT22;30431;48.520;9.046;2023-04-03T01:46:52;4.50;99.90
44705;DHT22;30431;48.520;9.046;2023-04-03T01:49:21;4.40;99.90
44705;DHT22;30431;48.520;9.046;2023-04-03T01:51:48;4.40;99.90
44705;DHT22;30431;48.520;9.046;2023-04-03T01:54:15;4.30;99.90
44705;DHT22;30431;48.520;9.046;2023-04-03T01:56:43;4.30;99.90
44705;DHT22;30431;48.520;9.046;2023-04-03T01:59:10;4.30;99.90
44705;DHT22;30431;48.520;9.046;2023-04-03T02:01:37;4.20;99.90
44705;DHT22;30431;48.520;9.046;2023-04-03T02:04:05;4.20;99.90
44705;DHT22;30431;48.520;9.046;2023-04-03T02:06:33;4.10;99.90
44705;DHT22;30431;48.520;9.046;2023-04-03T02:09:00;4.20;99.90
44705;DHT22;30431;48.520;9.046;2023-04-03T02:11:29;4.20;99.90
44705;DHT22;30431;48.520;9.046;2023-04-03T02:13:56;4.20;99.90
44705;DHT22;30431;48.520;9.046;2023-04-03T02:16:24;4.10;99.90
44705;DHT22;30431;48.520;9.046;2023-04-03T02:18:53;4.10;99.90
44705;DHT22;30431;48.520;9.046;2023-04-03T02:21:20;4.10;99.90
44705;DHT22;30431;48.520;9.046;2023-04-03T02:23:48;4.00;99.90
44705;DHT22;30431;48.520;9.046;2023-04-03T02:26:17;4.10;99.90
44705;DHT22;30431;48.520;9.046;2023-04-03T02:28:45;4.10;99.90
44705;DHT22;30431;48.520;9.046;2023-04-03T02:31:12;4.10;99.90
44705;DHT22;30431;48.520;9.046;2023-04-03T02:33:45;4.20;99.90
44705;DHT22;30431;48.520;9.046;2023-04-03T02:36:14;4.10;99.90
44705;DHT22;30431;48.520;9.046;2023-04-03T02:38:44;4.10;99.90
44705;DHT22;30431;48.520;9.046;2023-04-03T02:41:13;4.10;99.90
44705;DHT22;30431;48.520;9.046;2023-04-03T02:43:40;4.10;99.90
44705;DHT22;30431;48.520;9.046;2023-04-03T02:46:08;4.10;99.90
44705;DHT22;30431;48.520;9.046;2023-04-03T02:48:36;4.10;99.90
44705;DHT22;30431;48.520;9.046;2023-04-03T02:51:03;4.00;99.90
44705;DHT22;30431;48.520;9.046;2023-04-03T02:53:30;4.00;99.90
44705;DHT22;30431;48.520;9.046;2023-04-03T02:56:02;4.00;99.90
44705;DHT22;30431;48.520;9.046;2023-04-03T02:58:30;4.00;99.90
44705;DHT22;30431;48.520;9.046;2023-04-03T03:00:58;3.90;99.90
44705;DHT22;30431;48.520;9.046;2023-04-03T03:03:26;3.90;99.90
44705;DHT22;30431;48.520;9.046;2023-04-03T03:06:04;4.00;99.90
44705;DHT22;30431;48.520;9.046;2023-04-03T03:08:33;4.00;99.90
44705;DHT22;30431;48.520;9.046;2023-04-03T03:11:03;4.10;99.90
44705;DHT22;30431;48.520;9.046;2023-04-03T03:13:31;4.10;99.90
44705;DHT22;30431;48.520;9.046;2023-04-03T03:16:01;4.10;99.90
44705;DHT22;30431;48.520;9.046;2023-04-03T03:18:28;4.10;99.90
44705;DHT22;30431;48.520;9.046;2023-04-03T03:20:57;4.10;99.90
44705;DHT22;30431;48.520;9.046;2023-04-03T03:23:26;4.10;99.90
44705;DHT22;30431;48.520;9.046;2023-04-03T03:26:01;4.10;99.90
44705;DHT22;30431;48.520;9.046;2023-04-03T03:28:29;4.00;99.90
44705;DHT22;30431;48.520;9.046;2023-04-03T03:30:57;4.00;99.90
44705;DHT22;30431;48.520;9.046;2023-04-03T03:33:25;4.00;99.90
44705;DHT22;30431;48.520;9.046;2023-04-03T03:35:53;4.10;99.90
44705;DHT22;30431;48.520;9.046;2023-04-03T03:38:21;4.10;99.90
44705;DHT22;30431;48.520;9.046;2023-04-03T03:40:50;4.10;99.90
44705;DHT22;30431;48.520;9.046;2023-04-03T03:43:19;4.00;99.90
44705;DHT22;30431;48.520;9.046;2023-04-03T03:45:54;3.90;99.90
44705;DHT22;30431;48.520;9.046;2023-04-03T03:48:24;4.00;99.90
44705;DHT22;30431;48.520;9.046;2023-04-03T03:50:52;4.00;99.90
44705;DHT22;30431;48.520;9.046;2023-04-03T03:53:23;4.00;99.90
44705;DHT22;30431;48.520;9.046;2023-04-03T03:55:53;4.00;99.90
44705;DHT22;30431;48.520;9.046;2023-04-03T03:58:22;4.00;99.90
44705;DHT22;30431;48.520;9.046;2023-04-03T04:00:51;4.00;99.90
44705;DHT22;30431;48.520;9.046;2023-04-03T04:03:19;3.90;99.90
44705;DHT22;30431;48.520;9.046;2023-04-03T04:05:50;3.90;99.90
44705;DHT22;30431;48.520;9.046;2023-04-03T04:08:20;3.90;99.90
44705;DHT22;30431;48.520;9.046;2023-04-03T04:10:47;3.90;99.90
44705;DHT22;30431;48.520;9.046;2023-04-03T04:13:16;3.90;99.90
44705;DHT22;30431;48.520;9.046;2023-04-03T04:15:45;3.90;99.90
44705;DHT22;30431;48.520;9.046;2023-04-03T04:18:15;3.80;99.90
44705;DHT22;30431;48.520;9.046;2023-04-03T04:20:45;3.80;99.90
44705;DHT22;30431;48.520;9.046;2023-04-03T04:23:16;3.80;99.90
44705;DHT22;30431;48.520;9.046;2023-04-03T04:25:45;3.80;99.90
44705;DHT22;30431;48.520;9.046;2023-04-03T04:28:13;3.90;99.90
44705;DHT22;30431;48.520;9.046;2023-04-03T04:30:45;3.90;99.90
44705;DHT22;30431;48.520;9.046;2023-04-03T04:33:17;3.90;99.90
44705;DHT22;30431;48.520;9.046;2023-04-03T04:35:47;3.90;99.90
44705;DHT22;30431;48.520;9.046;2023-04-03T04:38:16;3.90;99.90
44705;DHT22;30431;48.520;9.046;2023-04-03T04:40:44;4.00;99.90
44705;DHT22;30431;48.520;9.046;2023-04-03T04:43:11;4.10;99.90
44705;DHT22;30431;48.520;9.046;2023-04-03T04:45:43;4.00;99.90
44705;DHT22;30431;48.520;9.046;2023-04-03T04:48:16;4.00;99.90
44705;DHT22;30431;48.520;9.046;2023-04-03T04:50:45;4.10;99.90
44705;DHT22;30431;48.520;9.046;2023-04-03T04:53:16;4.10;99.90
44705;DHT22;30431;48.520;9.046;2023-04-03T04:55:55;4.10;99.90
44705;DHT22;30431;48.520;9.046;2023-04-03T04:58:22;4.10;99.90
44705;DHT22;30431;48.520;9.046;2023-04-03T05:00:57;4.10;99.90
44705;DHT22;30431;48.520;9.046;2023-04-03T05:03:24;4.20;99.90
44705;DHT22;30431;48.520;9.046;2023-04-03T05:05:54;4.20;99.90
44705;DHT22;30431;48.520;9.046;2023-04-03T05:08:21;4.20;99.90
44705;DHT22;30431;48.520;9.046;2023-04-03T05:10:48;4.20;99.90
44705;DHT22;30431;48.520;9.046;2023-04-03T05:13:19;4.20;99.90
44705;DHT22;30431;48.520;9.046;2023-04-03T05:15:48;4.20;99.90
44705;DHT22;30431;48.520;9.046;2023-04-03T05:18:16;4.20;99.90
44705;DHT22;30431;48.520;9.046;2023-04-03T05:20:43;4.10;99.90
44705;DHT22;30431;48.520;9.046;2023-04-03T05:23:13;4.10;99.90
44705;DHT22;30431;48.520;9.046;2023-04-03T05:25:40;4.10;99.90
44705;DHT22;30431;48.520;9.046;2023-04-03T05:28:08;4.20;99.90
44705;DHT22;30431;48.520;9.046;2023-04-03T05:30:37;4.20;99.90
44705;DHT22;30431;48.520;9.046;2023-04-03T05:33:07;4.30;99.90
44705;DHT22;30431;48.520;9.046;2023-04-03T05:35:46;4.20;99.90
44705;DHT22;30431;48.520;9.046;2023-04-03T05:38:17;4.30;99.90
44705;DHT22;30431;48.520;9.046;2023-04-03T05:40:45;4.30;99.90
44705;DHT22;30431;48.520;9.046;2023-04-03T05:43:14;4.30;99.90
44705;DHT22;30431;48.520;9.046;2023-04-03T05:45:43;4.40;99.90
44705;DHT22;30431;48.520;9.046;2023-04-03T05:48:13;4.50;99.90
44705;DHT22;30431;48.520;9.046;2023-04-03T05:50:41;4.50;99.90
44705;DHT22;30431;48.520;9.046;2023-04-03T05:53:25;4.40;99.90
44705;DHT22;30431;48.520;9.046;2023-04-03T05:55:58;4.50;99.90
44705;DHT22;30431;48.520;9.046;2023-04-03T05:58:25;4.50;99.50
44705;DHT22;30431;48.520;9.046;2023-04-03T06:00:55;4.60;99.50
44705;DHT22;30431;48.520;9.046;2023-04-03T06:03:23;4.70;99.00
44705;DHT22;30431;48.520;9.046;2023-04-03T06:05:57;4.70;98.30
44705;DHT22;30431;48.520;9.046;2023-04-03T06:08:24;4.80;98.50
44705;DHT22;30431;48.520;9.046;2023-04-03T06:10:56;4.80;97.90
44705;DHT22;30431;48.520;9.046;2023-04-03T06:13:23;4.80;98.20
44705;DHT22;30431;48.520;9.046;2023-04-03T06:15:50;5.00;98.30
44705;DHT22;30431;48.520;9.046;2023-04-03T06:18:17;5.10;98.00
44705;DHT22;30431;48.520;9.046;2023-04-03T06:20:45;5.20;97.60
44705;DHT22;30431;48.520;9.046;2023-04-03T06:23:13;5.30;97.60
44705;DHT22;30431;48.520;9.046;2023-04-03T06:25:40;5.40;95.80
44705;DHT22;30431;48.520;9.046;2023-04-03T06:28:08;5.40;95.90
44705;DHT22;30431;48.520;9.046;2023-04-03T06:30:37;5.50;95.70
44705;DHT22;30431;48.520;9.046;2023-04-03T06:33:05;5.50;94.50
44705;DHT22;30431;48.520;9.046;2023-04-03T06:35:32;5.50;94.60
44705;DHT22;30431;48.520;9.046;2023-04-03T06:38:01;5.60;94.50
44705;DHT22;30431;48.520;9.046;2023-04-03T06:40:37;5.50;94.30
44705;DHT22;30431;48.520;9.046;2023-04-03T06:43:07;5.60;94.50
44705;DHT22;30431;48.520;9.046;2023-04-03T06:45:35;5.60;94.80
44705;DHT22;30431;48.520;9.046;2023-04-03T06:48:03;5.60;95.00
44705;DHT22;30431;48.520;9.046;2023-04-03T06:50:30;5.70;95.10
44705;DHT22;30431;48.520;9.046;2023-04-03T06:52:57;5.70;97.70
44705;DHT22;30431;48.520;9.046;2023-04-03T06:55:27;6.00;95.70
44705;DHT22;30431;48.520;9.046;2023-04-03T06:57:54;6.00;95.50
44705;DHT22;30431;48.520;9.046;2023-04-03T07:00:23;5.90;95.80
44705;DHT22;30431;48.520;9.046;2023-04-03T07:02:51;6.00;96.00
44705;DHT22;30431;48.520;9.046;2023-04-03T07:05:23;6.10;95.20
44705;DHT22;30431;48.520;9.046;2023-04-03T07:07:53;6.30;95.70
44705;DHT22;30431;48.520;9.046;2023-04-03T07:10:20;6.30;94.80
44705;DHT22;30431;48.520;9.046;2023-04-03T07:12:52;6.50;95.70
44705;DHT22;30431;48.520;9.046;2023-04-03T07:15:23;6.40;94.30
44705;DHT22;30431;48.520;9.046;2023-04-03T07:17:51;6.30;94.50
44705;DHT22;30431;48.520;9.046;2023-04-03T07:20:18;6.40;94.60
44705;DHT22;30431;48.520;9.046;2023-04-03T07:22:45;6.60;95.20
44705;DHT22;30431;48.520;9.046;2023-04-03T07:25:12;6.80;93.80
44705;DHT22;30431;48.520;9.046;2023-04-03T07:27:39;6.80;94.10
44705;DHT22;30431;48.520;9.046;2023-04-03T07:30:06;6.90;93.50
44705;DHT22;30431;48.520;9.046;2023-04-03T07:32:33;6.90;93.20
44705;DHT22;30431;48.520;9.046;2023-04-03T07:35:00;7.00;92.30
44705;DHT22;30431;48.520;9.046;2023-04-03T07:37:29;6.60;93.20
44705;DHT22;30431;48.520;9.046;2023-04-03T07:39:56;6.90;93.20
44705;DHT22;30431;48.520;9.046;2023-04-03T07:42:25;7.20;92.50
44705;DHT22;30431;48.520;9.046;2023-04-03T07:44:55;7.30;92.70
44705;DHT22;30431;48.520;9.046;2023-04-03T07:47:24;7.20;91.50
44705;DHT22;30431;48.520;9.046;2023-04-03T07:49:51;7.40;92.30
44705;DHT22;30431;48.520;9.046;2023-04-03T07:52:18;7.70;92.00
44705;DHT22;30431;48.520;9.046;2023-04-03T07:54:47;7.60;91.30
44705;DHT22;30431;48.520;9.046;2023-04-03T07:57:14;7.80;91.20
44705;DHT22;30431;48.520;9.046;2023-04-03T07:59:41;7.70;90.90
44705;DHT22;30431;48.520;9.046;2023-04-03T08:02:10;7.80;91.20
44705;DHT22;30431;48.520;9.046;2023-04-03T08:04:37;7.80;91.00
44705;DHT22;30431;48.520;9.046;2023-04-03T08:07:04;7.80;90.60
44705;DHT22;30431;48.520;9.046;2023-04-03T08:09:32;7.90;91.10
44705;DHT22;30431;48.520;9.046;2023-04-03T08:11:59;8.00;91.20
44705;DHT22;30431;48.520;9.046;2023-04-03T08:14:26;8.40;90.90
44705;DHT22;30431;48.520;9.046;2023-04-03T08:16:53;8.30;89.10
44705;DHT22;30431;48.520;9.046;2023-04-03T08:19:20;8.00;89.20
44705;DHT22;30431;48.520;9.046;2023-04-03T08:21:53;8.00;89.70
44705;DHT22;30431;48.520;9.046;2023-04-03T08:24:20;8.10;90.10
44705;DHT22;30431;48.520;9.046;2023-04-03T08:26:52;8.20;90.10
44705;DHT22;30431;48.520;9.046;2023-04-03T08:29:19;8.20;89.70
44705;DHT22;30431;48.520;9.046;2023-04-03T08:31:46;8.30;90.00
44705;DHT22;30431;48.520;9.046;2023-04-03T08:34:14;8.50;89.10
44705;DHT22;30431;48.520;9.046;2023-04-03T08:36:42;8.60;87.70
44705;DHT22;30431;48.520;9.046;2023-04-03T08:39:12;8.50;88.60
44705;DHT22;30431;48.520;9.046;2023-04-03T08:41:44;8.60;88.00
44705;DHT22;30431;48.520;9.046;2023-04-03T08:44:39;8.90;88.50
44705;DHT22;30431;48.520;9.046;2023-04-03T08:49:56;9.00;86.70
44705;DHT22;30431;48.520;9.046;2023-04-03T08:52:41;8.80;86.30
44705;DHT22;30431;48.520;9.046;2023-04-03T08:55:31;8.70;86.80
44705;DHT22;30431;48.520;9.046;2023-04-03T09:00:44;8.40;88.20
44705;DHT22;30431;48.520;9.046;2023-04-03T09:03:16;8.80;87.70
44705;DHT22;30431;48.520;9.046;2023-04-03T09:06:00;9.10;86.80
44705;DHT22;30431;48.520;9.046;2023-04-03T09:22:21;9.20;86.60
44705;DHT22;30431;48.520;9.046;2023-04-03T09:25:00;9.40;83.50
44705;DHT22;30431;48.520;9.046;2023-04-03T09:27:29;9.40;82.80
44705;DHT22;30431;48.520;9.046;2023-04-03T09:30:00;9.60;81.80
44705;DHT22;30431;48.520;9.046;2023-04-03T09:32:35;9.60;80.90
44705;DHT22;30431;48.520;9.046;2023-04-03T09:35:21;9.50;81.30
44705;DHT22;30431;48.520;9.046;2023-04-03T09:38:18;9.40;79.40
44705;DHT22;30431;48.520;9.046;2023-04-03T09:41:02;9.60;82.60
44705;DHT22;30431;48.520;9.046;2023-04-03T09:43:34;9.70;80.90
44705;DHT22;30431;48.520;9.046;2023-04-03T09:46:40;9.70;80.30
44705;DHT22;30431;48.520;9.046;2023-04-03T09:49:11;9.80;81.50
44705;DHT22;30431;48.520;9.046;2023-04-03T09:51:40;10.10;80.00
44705;DHT22;30431;48.520;9.046;2023-04-03T09:57:12;10.10;77.30
44705;DHT22;30431;48.520;9.046;2023-04-03T09:59:57;10.10;76.30
44705;DHT22;30431;48.520;9.046;2023-04-03T10:02:38;9.80;78.00
44705;DHT22;30431;48.520;9.046;2023-04-03T10:05:32;9.50;78.40
44705;DHT22;30431;48.520;9.046;2023-04-03T10:10:46;10.00;77.20
44705;DHT22;30431;48.520;9.046;2023-04-03T10:13:19;9.90;77.20
44705;DHT22;30431;48.520;9.046;2023-04-03T10:16:18;9.90;76.80
44705;DHT22;30431;48.520;9.046;2023-04-03T10:27:42;9.90;76.40
44705;DHT22;30431;48.520;9.046;2023-04-03T10:51:43;9.80;71.00
44705;DHT22;30431;48.520;9.046;2023-04-03T10:54:24;9.80;70.90
44705;DHT22;30431;48.520;9.046;2023-04-03T10:56:55;9.40;70.60
44705;DHT22;30431;48.520;9.046;2023-04-03T11:02:34;9.00;72.70
44705;DHT22;30431;48.520;9.046;2023-04-03T11:07:43;9.60;71.80
44705;DHT22;30431;48.520;9.046;2023-04-03T11:10:31;9.60;72.20
44705;DHT22;30431;48.520;9.046;2023-04-03T11:13:54;9.60;70.40
44705;DHT22;30431;48.520;9.046;2023-04-03T11:15:54;9.60;71.30
44705;DHT22;30431;48.520;9.046;2023-04-03T11:18:44;9.60;71.00
44705;DHT22;30431;48.520;9.046;2023-04-03T11:21:20;9.70;71.10
44705;DHT22;30431;48.520;9.046;2023-04-03T11:23:50;9.80;70.00
44705;DHT22;30431;48.520;9.046;2023-04-03T11:26:20;9.80;69.50
44705;DHT22;30431;48.520;9.046;2023-04-03T11:29:19;9.90;67.90
44705;DHT22;30431;48.520;9.046;2023-04-03T11:34:51;9.80;66.80
44705;DHT22;30431;48.520;9.046;2023-04-03T11:40:01;10.40;69.00
44705;DHT22;30431;48.520;9.046;2023-04-03T11:42:38;10.70;65.80
44705;DHT22;30431;48.520;9.046;2023-04-03T11:47:55;9.90;65.80
44705;DHT22;30431;48.520;9.046;2023-04-03T11:58:28;9.50;65.30
44705;DHT22;30431;48.520;9.046;2023-04-03T12:01:06;9.60;65.80
44705;DHT22;30431;48.520;9.046;2023-04-03T12:03:57;9.70;67.20
44705;DHT22;30431;48.520;9.046;2023-04-03T12:09:27;10.00;66.00
44705;DHT22;30431;48.520;9.046;2023-04-03T12:11:59;10.40;66.40
44705;DHT22;30431;48.520;9.046;2023-04-03T12:14:27;10.30;65.80
44705;DHT22;30431;48.520;9.046;2023-04-03T12:16:55;10.40;66.30
44705;DHT22;30431;48.520;9.046;2023-04-03T12:19:38;10.70;67.00
44705;DHT22;30431;48.520;9.046;2023-04-03T12:22:13;10.60;67.10
44705;DHT22;30431;48.520;9.046;2023-04-03T12:24:44;10.50;66.70
44705;DHT22;30431;48.520;9.046;2023-04-03T12:27:34;10.30;67.20
44705;DHT22;30431;48.520;9.046;2023-04-03T12:30:07;10.00;68.60
44705;DHT22;30431;48.520;9.046;2023-04-03T12:35:29;9.70;68.40
44705;DHT22;30431;48.520;9.046;2023-04-03T12:46:25;10.10;65.10
44705;DHT22;30431;48.520;9.046;2023-04-03T12:48:55;10.00;64.50
44705;DHT22;30431;48.520;9.046;2023-04-03T12:54:03;9.70;65.00
44705;DHT22;30431;48.520;9.046;2023-04-03T12:56:32;9.80;65.70
44705;DHT22;30431;48.520;9.046;2023-04-03T12:59:26;9.60;64.80
44705;DHT22;30431;48.520;9.046;2023-04-03T13:01:56;8.90;66.20
44705;DHT22;30431;48.520;9.046;2023-04-03T13:04:25;8.90;67.50
44705;DHT22;30431;48.520;9.046;2023-04-03T13:06:55;9.20;66.70
44705;DHT22;30431;48.520;9.046;2023-04-03T13:09:23;9.30;66.40
44705;DHT22;30431;48.520;9.046;2023-04-03T13:14:28;9.70;65.80
44705;DHT22;30431;48.520;9.046;2023-04-03T13:16:58;9.60;66.20
44705;DHT22;30431;48.520;9.046;2023-04-03T13:19:30;9.80;66.60
44705;DHT22;30431;48.520;9.046;2023-04-03T13:22:15;9.80;65.40
44705;DHT22;30431;48.520;9.046;2023-04-03T13:24:49;9.90;65.40
44705;DHT22;30431;48.520;9.046;2023-04-03T13:27:17;9.90;64.80
44705;DHT22;30431;48.520;9.046;2023-04-03T13:29:50;9.80;66.00
44705;DHT22;30431;48.520;9.046;2023-04-03T13:32:21;10.00;64.70
44705;DHT22;30431;48.520;9.046;2023-04-03T13:34:49;9.90;65.60
44705;DHT22;30431;48.520;9.046;2023-04-03T13:37:26;9.70;65.70
44705;DHT22;30431;48.520;9.046;2023-04-03T13:42:32;9.90;65.70
44705;DHT22;30431;48.520;9.046;2023-04-03T13:45:19;10.00;64.70
44705;DHT22;30431;48.520;9.046;2023-04-03T13:47:48;10.00;64.00
44705;DHT22;30431;48.520;9.046;2023-04-03T13:52:52;9.90;64.00
44705;DHT22;30431;48.520;9.046;2023-04-03T13:55:34;10.10;64.10
44705;DHT22;30431;48.520;9.046;2023-04-03T13:58:20;10.10;63.60
44705;DHT22;30431;48.520;9.046;2023-04-03T14:00:53;10.10;62.50
44705;DHT22;30431;48.520;9.046;2023-04-03T14:03:23;9.90;63.70
44705;DHT22;30431;48.520;9.046;2023-04-03T14:05:55;9.90;63.90
44705;DHT22;30431;48.520;9.046;2023-04-03T14:08:22;9.80;62.50
44705;DHT22;30431;48.520;9.046;2023-04-03T14:11:04;9.50;63.50
44705;DHT22;30431;48.520;9.046;2023-04-03T14:13:31;9.50;63.60
44705;DHT22;30431;48.520;9.046;2023-04-03T14:15:58;9.40;63.40
44705;DHT22;30431;48.520;9.046;2023-04-03T14:18:41;9.50;64.60
44705;DHT22;30431;48.520;9.046;2023-04-03T14:21:09;9.30;64.50
44705;DHT22;30431;48.520;9.046;2023-04-03T14:23:37;9.40;64.80
44705;DHT22;30431;48.520;9.046;2023-04-03T14:26:12;9.60;64.70
44705;DHT22;30431;48.520;9.046;2023-04-03T14:28:40;9.90;64.60
44705;DHT22;30431;48.520;9.046;2023-04-03T14:31:12;10.10;64.10
44705;DHT22;30431;48.520;9.046;2023-04-03T14:33:41;10.20;64.10
44705;DHT22;30431;48.520;9.046;2023-04-03T14:36:25;10.20;61.40
44705;DHT22;30431;48.520;9.046;2023-04-03T14:38:55;10.10;61.40
44705;DHT22;30431;48.520;9.046;2023-04-03T14:41:26;9.90;61.40
44705;DHT22;30431;48.520;9.046;2023-04-03T14:43:54;9.70;62.10
44705;DHT22;30431;48.520;9.046;2023-04-03T14:46:28;9.10;62.90
44705;DHT22;30431;48.520;9.046;2023-04-03T14:49:18;8.90;64.90
44705;DHT22;30431;48.520;9.046;2023-04-03T14:51:46;8.90;65.20
44705;DHT22;30431;48.520;9.046;2023-04-03T14:54:21;8.90;65.50
44705;DHT22;30431;48.520;9.046;2023-04-03T14:56:56;9.00;64.10
44705;DHT22;30431;48.520;9.046;2023-04-03T14:59:25;9.10;64.70
44705;DHT22;30431;48.520;9.046;2023-04-03T15:01:53;9.10;64.30
44705;DHT22;30431;48.520;9.046;2023-04-03T15:04:20;9.10;64.40
44705;DHT22;30431;48.520;9.046;2023-04-03T15:06:51;9.00;65.00
44705;DHT22;30431;48.520;9.046;2023-04-03T15:09:24;8.90;63.50
44705;DHT22;30431;48.520;9.046;2023-04-03T15:11:54;8.70;64.30
44705;DHT22;30431;48.520;9.046;2023-04-03T15:14:22;8.50;65.20
44705;DHT22;30431;48.520;9.046;2023-04-03T15:17:04;8.40;65.60
44705;DHT22;30431;48.520;9.046;2023-04-03T15:19:36;8.40;66.00
44705;DHT22;30431;48.520;9.046;2023-04-03T15:22:05;8.30;66.00
44705;DHT22;30431;48.520;9.046;2023-04-03T15:24:32;8.40;65.70
44705;DHT22;30431;48.520;9.046;2023-04-03T15:27:00;8.40;65.70
44705;DHT22;30431;48.520;9.046;2023-04-03T15:29:28;8.40;65.50
44705;DHT22;30431;48.520;9.046;2023-04-03T15:31:57;8.60;65.90
44705;DHT22;30431;48.520;9.046;2023-04-03T15:34:24;8.70;63.90
44705;DHT22;30431;48.520;9.046;2023-04-03T15:36:51;8.70;63.80
44705;DHT22;30431;48.520;9.046;2023-04-03T15:39:27;8.80;64.40
44705;DHT22;30431;48.520;9.046;2023-04-03T15:41:55;8.80;64.60
44705;DHT22;30431;48.520;9.046;2023-04-03T15:44:25;8.90;63.20
44705;DHT22;30431;48.520;9.046;2023-04-03T15:46:53;8.90;63.70
44705;DHT22;30431;48.520;9.046;2023-04-03T15:49:21;8.70;63.90
44705;DHT22;30431;48.520;9.046;2023-04-03T15:51:51;8.50;65.00
44705;DHT22;30431;48.520;9.046;2023-04-03T15:54:19;8.40;64.70
44705;DHT22;30431;48.520;9.046;2023-04-03T15:56:46;8.30;65.70
44705;DHT22;30431;48.520;9.046;2023-04-03T15:59:16;8.10;66.00
44705;DHT22;30431;48.520;9.046;2023-04-03T16:01:43;7.90;66.50
44705;DHT22;30431;48.520;9.046;2023-04-03T16:04:16;7.90;66.80
44705;DHT22;30431;48.520;9.046;2023-04-03T16:06:45;8.00;67.60
44705;DHT22;30431;48.520;9.046;2023-04-03T16:09:16;8.00;67.40
44705;DHT22;30431;48.520;9.046;2023-04-03T16:11:46;8.00;67.70
44705;DHT22;30431;48.520;9.046;2023-04-03T16:14:13;8.00;67.10
44705;DHT22;30431;48.520;9.046;2023-04-03T16:16:49;7.90;66.60
44705;DHT22;30431;48.520;9.046;2023-04-03T16:19:18;7.80;66.30
44705;DHT22;30431;48.520;9.046;2023-04-03T16:21:46;7.80;66.70
44705;DHT22;30431;48.520;9.046;2023-04-03T16:24:17;7.70;66.00
44705;DHT22;30431;48.520;9.046;2023-04-03T16:26:46;7.60;65.70
44705;DHT22;30431;48.520;9.046;2023-04-03T16:29:15;7.60;66.30
44705;DHT22;30431;48.520;9.046;2023-04-03T16:31:44;7.60;65.70
44705;DHT22;30431;48.520;9.046;2023-04-03T16:34:12;7.70;65.80
44705;DHT22;30431;48.520;9.046;2023-04-03T16:36:45;7.90;65.80
44705;DHT22;30431;48.520;9.046;2023-04-03T16:39:12;8.00;64.80
44705;DHT22;30431;48.520;9.046;2023-04-03T16:41:39;7.80;64.80
44705;DHT22;30431;48.520;9.046;2023-04-03T16:44:16;7.80;65.20
44705;DHT22;30431;48.520;9.046;2023-04-03T16:46:43;7.80;65.90
44705;DHT22;30431;48.520;9.046;2023-04-03T16:49:14;7.80;65.00
44705;DHT22;30431;48.520;9.046;2023-04-03T16:51:41;7.60;65.90
44705;DHT22;30431;48.520;9.046;2023-04-03T16:54:08;7.50;66.20
44705;DHT22;30431;48.520;9.046;2023-04-03T16:56:37;7.40;66.50
44705;DHT22;30431;48.520;9.046;2023-04-03T16:59:04;7.40;67.40
44705;DHT22;30431;48.520;9.046;2023-04-03T17:01:34;7.30;67.90
44705;DHT22;30431;48.520;9.046;2023-04-03T17:04:01;7.20;69.10
44705;DHT22;30431;48.520;9.046;2023-04-03T17:06:31;7.10;68.40
44705;DHT22;30431;48.520;9.046;2023-04-03T17:08:58;7.00;68.10
44705;DHT22;30431;48.520;9.046;2023-04-03T17:11:28;6.80;69.20
44705;DHT22;30431;48.520;9.046;2023-04-03T17:13:55;6.60;69.10
44705;DHT22;30431;48.520;9.046;2023-04-03T17:16:23;6.50;70.00
44705;DHT22;30431;48.520;9.046;2023-04-03T17:18:52;6.50;69.80
44705;DHT22;30431;48.520;9.046;2023-04-03T17:21:20;6.40;70.00
44705;DHT22;30431;48.520;9.046;2023-04-03T17:23:55;6.40;70.10
44705;DHT22;30431;48.520;9.046;2023-04-03T17:26:25;6.30;70.10
44705;DHT22;30431;48.520;9.046;2023-04-03T17:28:53;6.10;70.90
44705;DHT22;30431;48.520;9.046;2023-04-03T17:31:20;6.10;70.70
44705;DHT22;30431;48.520;9.046;2023-04-03T17:33:47;6.20;70.60
44705;DHT22;30431;48.520;9.046;2023-04-03T17:36:16;6.10;70.80
44705;DHT22;30431;48.520;9.046;2023-04-03T17:38:43;6.20;71.30
44705;DHT22;30431;48.520;9.046;2023-04-03T17:41:10;6.20;71.30
44705;DHT22;30431;48.520;9.046;2023-04-03T17:43:37;6.20;71.10
44705;DHT22;30431;48.520;9.046;2023-04-03T17:46:09;6.10;71.90
44705;DHT22;30431;48.520;9.046;2023-04-03T17:48:38;6.10;71.40
44705;DHT22;30431;48.520;9.046;2023-04-03T17:51:10;6.20;70.70
44705;DHT22;30431;48.520;9.046;2023-04-03T17:53:39;6.10;71.40